Time;durP1;ratioP1;P1;durP2;ratioP2;P2;SDS_P1;SDS_P2;PMS_P1;PMS_P2;Temp;Humidity;BMP_temperature;BMP_pressure;BME280_temperature;BME280_humidity;BME280_pressure;Samples;Min_cycle;Max_cycle;Signal;HPM_P1;HPM_P2
2021/11/07 00:00:43;;;;;;;0.40;0.40;;;;;;;9.53;84.78;101203.69;5033162;28;20501;-72
2021/11/07 00:03:14;;;;;;;0.40;0.30;;;;;;;9.51;85.12;101211.25;5033198;28;20848;-72
2021/11/07 00:05:44;;;;;;;0.40;0.30;;;;;;;9.50;85.62;101209.63;5033119;28;20525;-72
2021/11/07 00:10:56;;;;;;;0.40;0.30;;;;;;;9.45;85.24;101199.66;5032553;28;21003;-71
2021/11/07 00:13:24;;;;;;;0.40;0.30;;;;;;;9.41;85.63;101193.19;5032569;28;20945;-71
2021/11/07 00:15:50;;;;;;;0.40;0.30;;;;;;;9.40;85.35;101177.25;5032739;28;20479;-71
2021/11/07 00:18:20;;;;;;;0.40;0.30;;;;;;;9.37;85.77;101175.09;5032638;28;20546;-71
2021/11/07 00:20:54;;;;;;;0.40;0.30;;;;;;;9.35;85.83;101173.47;5033004;28;20454;-71
2021/11/07 00:23:36;;;;;;;0.40;0.30;;;;;;;9.31;86.26;101158.91;5033016;28;20485;-71
2021/11/07 00:26:09;;;;;;;0.40;0.30;;;;;;;9.32;86.29;101163.22;5032582;28;20976;-71
2021/11/07 00:28:39;;;;;;;0.40;0.30;;;;;;;9.32;86.05;101157.81;5032966;28;20481;-72
2021/11/07 00:31:16;;;;;;;0.40;0.30;;;;;;;9.31;86.16;101145.38;5032942;28;20447;-71
2021/11/07 00:33:59;;;;;;;0.40;0.30;;;;;;;9.32;86.43;101140.78;5032931;28;20421;-71
2021/11/07 00:36:28;;;;;;;0.40;0.30;;;;;;;9.30;86.27;101132.97;5032884;28;20463;-71
2021/11/07 00:39:07;;;;;;;0.40;0.30;;;;;;;9.33;86.06;101121.56;5032496;28;21010;-71
2021/11/07 00:41:38;;;;;;;0.40;0.30;;;;;;;9.32;86.11;101102.94;5032878;28;20435;-71
2021/11/07 00:44:08;;;;;;;0.40;0.30;;;;;;;9.28;86.22;101110.78;5032512;28;20909;-71
2021/11/07 00:46:40;;;;;;;0.40;0.30;;;;;;;9.24;86.94;101101.63;5032627;28;20864;-71
2021/11/07 00:49:09;;;;;;;0.40;0.30;;;;;;;9.19;86.92;101087.34;5032811;28;20534;-71
2021/11/07 00:51:43;;;;;;;0.40;0.30;;;;;;;9.16;87.11;101085.97;5032764;28;20446;-71
2021/11/07 00:54:17;;;;;;;0.40;0.30;;;;;;;9.19;86.74;101079.22;5032709;28;20435;-71
2021/11/07 00:56:46;;;;;;;0.40;0.27;;;;;;;9.13;87.79;101067.66;5032711;28;20474;-71
2021/11/07 00:59:24;;;;;;;0.40;0.30;;;;;;;9.13;87.10;101073.06;5032609;28;20462;-71
2021/11/07 01:01:54;;;;;;;0.40;0.30;;;;;;;9.13;87.05;101069.53;5032631;28;20423;-71
2021/11/07 01:04:21;;;;;;;0.40;0.30;;;;;;;9.14;87.10;101063.84;5033176;28;20442;-71
2021/11/07 01:06:48;;;;;;;0.40;0.40;;;;;;;9.13;87.12;101073.06;5031994;28;20487;-71
2021/11/07 01:09:16;;;;;;;0.40;0.30;;;;;;;9.13;87.38;101059.53;5032615;28;20443;-71
2021/11/07 01:11:43;;;;;;;0.40;0.30;;;;;;;9.14;87.07;101071.97;5035070;28;20454;-71
2021/11/07 01:14:12;;;;;;;0.40;0.30;;;;;;;9.15;87.34;101060.06;5036121;28;20455;-71
2021/11/07 01:16:38;;;;;;;0.40;0.30;;;;;;;9.14;87.65;101055.75;5036037;28;20483;-71
2021/11/07 01:19:05;;;;;;;0.40;0.30;;;;;;;9.14;88.19;101050.34;5035920;28;20948;-70
2021/11/07 01:21:35;;;;;;;0.40;0.30;;;;;;;9.13;87.43;101040.63;5035926;28;20450;-70
2021/11/07 01:24:05;;;;;;;0.40;0.30;;;;;;;9.10;87.35;101031.16;5036223;28;20446;-70
2021/11/07 01:26:36;;;;;;;0.40;0.30;;;;;;;9.10;87.71;101019.56;5036153;28;20479;-71
2021/11/07 01:29:09;;;;;;;0.40;0.30;;;;;;;9.10;87.53;101014.94;5035822;28;20423;-71
2021/11/07 01:31:37;;;;;;;0.40;0.30;;;;;;;9.09;87.97;101009.84;5035855;28;20803;-71
2021/11/07 01:34:04;;;;;;;0.40;0.30;;;;;;;9.14;87.69;100999.00;5035835;28;20442;-71
2021/11/07 01:36:40;;;;;;;0.40;0.30;;;;;;;9.18;88.10;100994.63;5035619;28;20471;-71
2021/11/07 01:39:12;;;;;;;0.40;0.30;;;;;;;9.19;87.76;100985.44;5035360;28;20434;-71
2021/11/07 01:41:46;;;;;;;0.40;0.30;;;;;;;9.23;86.73;100989.19;5035694;28;20469;-71
2021/11/07 01:44:13;;;;;;;0.40;0.30;;;;;;;9.26;87.13;100972.41;5035263;28;20981;-71
2021/11/07 01:46:43;;;;;;;0.40;0.30;;;;;;;9.25;86.79;100978.91;5035351;28;20487;-71
2021/11/07 01:49:12;;;;;;;0.40;0.30;;;;;;;9.26;87.11;100964.31;5035394;28;20819;-71
2021/11/07 01:51:46;;;;;;;0.40;0.30;;;;;;;9.28;87.03;100956.72;5035427;28;20458;-70
2021/11/07 01:54:20;;;;;;;0.40;0.30;;;;;;;9.27;87.37;100955.09;5035389;28;20458;-70
2021/11/07 01:56:48;;;;;;;0.40;0.30;;;;;;;9.30;87.28;100951.03;5035221;28;21003;-71
2021/11/07 01:59:15;;;;;;;0.40;0.30;;;;;;;9.34;86.83;100946.66;5034997;28;20861;-71
2021/11/07 02:01:42;;;;;;;0.97;0.97;;;;;;;9.33;86.56;100937.75;5035016;28;20440;-71
2021/11/07 02:04:09;;;;;;;0.40;0.20;;;;;;;9.34;87.33;100938.53;5035156;28;20443;-70
2021/11/07 02:06:35;;;;;;;0.40;0.30;;;;;;;9.32;86.53;100933.44;5034980;28;20477;-71
2021/11/07 02:09:02;;;;;;;0.40;0.30;;;;;;;9.29;86.44;100936.69;5035169;28;20497;-71
2021/11/07 02:11:29;;;;;;;0.50;0.50;;;;;;;9.31;87.02;100918.31;5035055;28;20447;-71
2021/11/07 02:13:57;;;;;;;0.40;0.30;;;;;;;9.32;87.19;100914.50;5034995;28;20450;-71
2021/11/07 02:16:23;;;;;;;0.40;0.30;;;;;;;9.30;86.58;100910.50;5034942;28;20530;-71
2021/11/07 02:18:50;;;;;;;0.40;0.30;;;;;;;9.31;86.61;100906.69;5034624;28;20933;-71
2021/11/07 02:21:17;;;;;;;0.40;0.30;;;;;;;9.31;86.42;100902.09;5034705;28;20450;-71
2021/11/07 02:23:44;;;;;;;0.40;0.30;;;;;;;9.30;87.05;100900.47;5034017;28;20446;-70
2021/11/07 02:26:11;;;;;;;0.40;0.30;;;;;;;9.31;86.74;100893.97;5033981;28;21013;-71
2021/11/07 02:28:46;;;;;;;0.40;0.30;;;;;;;9.29;86.57;100887.22;5034647;28;20478;-71
2021/11/07 02:31:15;;;;;;;0.40;0.30;;;;;;;9.26;87.65;100883.22;5034776;28;20442;-71
2021/11/07 02:33:42;;;;;;;1.43;1.33;;;;;;;9.32;86.84;100873.16;5034257;28;20980;-71
2021/11/07 02:36:12;;;;;;;0.40;0.30;;;;;;;9.33;86.73;100872.84;5034752;28;20517;-71
2021/11/07 02:38:42;;;;;;;0.40;0.30;;;;;;;9.35;86.91;100867.19;5034192;28;20937;-71
2021/11/07 02:41:09;;;;;;;0.40;0.30;;;;;;;9.39;86.94;100862.81;5034037;28;20463;-71
2021/11/07 02:43:44;;;;;;;0.40;0.30;;;;;;;9.43;87.03;100852.22;5034124;28;20447;-71
2021/11/07 02:46:15;;;;;;;0.40;0.30;;;;;;;9.43;86.82;100850.34;5034252;28;20859;-71
2021/11/07 02:48:42;;;;;;;0.40;0.30;;;;;;;9.46;86.93;100832.72;5034249;28;20516;-69
2021/11/07 02:51:09;;;;;;;5.80;5.40;;;;;;;9.49;86.28;100824.84;5033445;28;20949;-69
2021/11/07 02:53:35;;;;;;;0.40;0.30;;;;;;;9.50;86.36;100831.88;5034248;28;20443;-69
2021/11/07 02:56:03;;;;;;;0.40;0.30;;;;;;;9.50;86.65;100818.34;5033944;28;20487;-69
2021/11/07 02:58:31;;;;;;;0.40;0.30;;;;;;;9.56;86.68;100816.38;5034367;28;20447;-70
2021/11/07 03:00:58;;;;;;;0.40;0.30;;;;;;;9.53;86.01;100811.56;5034123;28;20443;-70
2021/11/07 03:03:25;;;;;;;0.40;0.30;;;;;;;9.57;86.13;100802.59;5034101;28;20458;-70
2021/11/07 03:05:52;;;;;;;0.40;0.30;;;;;;;9.54;86.20;100807.75;5033691;28;20467;-69
2021/11/07 03:08:18;;;;;;;0.40;0.30;;;;;;;9.54;86.49;100802.34;5033955;28;20490;-69
2021/11/07 03:10:44;;;;;;;0.40;0.20;;;;;;;9.56;86.64;100800.16;5033971;28;20450;-69
2021/11/07 03:13:15;;;;;;;0.40;0.30;;;;;;;9.57;85.75;100785.56;5033847;28;20450;-69
2021/11/07 03:15:42;;;;;;;0.40;0.30;;;;;;;9.57;85.79;100778.25;5033850;28;20505;-69
2021/11/07 03:18:10;;;;;;;0.40;0.30;;;;;;;9.61;85.84;100770.38;5033480;28;20449;-69
2021/11/07 03:20:36;;;;;;;0.40;0.30;;;;;;;9.64;85.96;100761.66;5033789;28;20443;-69
2021/11/07 03:23:03;;;;;;;0.40;0.30;;;;;;;9.66;85.49;100761.38;5033674;28;20452;-69
2021/11/07 03:25:30;;;;;;;1.47;1.37;;;;;;;9.66;85.69;100759.47;5032961;28;21004;-69
2021/11/07 03:27:57;;;;;;;0.40;0.30;;;;;;;9.65;86.03;100747.06;5033540;28;20518;-69
2021/11/07 03:30:38;;;;;;;0.40;0.27;;;;;;;9.69;86.15;100748.06;5033675;28;20524;-70
2021/11/07 03:33:13;;;;;;;0.40;0.30;;;;;;;9.70;85.81;100740.78;5033281;28;20485;-69
2021/11/07 03:35:41;;;;;;;0.40;0.30;;;;;;;9.73;85.49;100734.78;5033467;28;20517;-69
2021/11/07 03:38:08;;;;;;;0.40;0.30;;;;;;;9.73;85.75;100727.44;5033526;28;20451;-69
2021/11/07 03:40:35;;;;;;;0.40;0.30;;;;;;;9.75;86.24;100727.19;5033467;28;20452;-71
2021/11/07 03:43:01;;;;;;;0.40;0.30;;;;;;;9.68;87.95;100726.72;5033502;28;20569;-70
2021/11/07 03:45:30;;;;;;;0.40;0.30;;;;;;;9.59;90.15;100721.16;5033307;28;20462;-71
2021/11/07 03:47:56;;;;;;;0.40;0.30;;;;;;;9.44;91.91;100724.88;5033230;28;20493;-71
2021/11/07 03:50:26;;;;;;;0.40;0.30;;;;;;;9.40;92.40;100709.53;5033345;28;20876;-71
2021/11/07 03:52:52;;;;;;;0.40;0.30;;;;;;;9.34;94.66;100708.78;5033488;28;20443;-71
2021/11/07 03:55:19;;;;;;;0.40;0.30;;;;;;;9.29;93.02;100690.72;5033061;28;20478;-71
2021/11/07 03:57:45;;;;;;;0.40;0.30;;;;;;;9.30;93.64;100697.75;5033216;28;20446;-71
2021/11/07 04:00:14;;;;;;;0.40;0.30;;;;;;;9.33;93.52;100699.84;5033175;28;20443;-71
2021/11/07 04:02:42;;;;;;;0.40;0.30;;;;;;;9.35;93.24;100691.47;5033173;28;20454;-71
2021/11/07 04:05:10;;;;;;;0.40;0.30;;;;;;;9.35;92.21;100691.47;5033206;28;20471;-72
2021/11/07 04:07:37;;;;;;;0.40;0.30;;;;;;;9.38;92.21;100692.78;5033031;28;20490;-72
2021/11/07 04:10:06;;;;;;;0.40;0.30;;;;;;;9.43;91.70;100668.38;5033164;28;20474;-72
2021/11/07 04:12:32;;;;;;;0.40;0.30;;;;;;;9.46;92.17;100662.41;5032814;28;20443;-72
2021/11/07 04:14:59;;;;;;;0.40;0.30;;;;;;;9.48;92.27;100660.22;5032985;28;20481;-71
2021/11/07 04:17:25;;;;;;;0.40;0.30;;;;;;;9.50;90.56;100658.00;5033048;28;20485;-71
2021/11/07 04:19:53;;;;;;;0.40;0.30;;;;;;;9.54;90.39;100659.03;5033077;28;20447;-72
2021/11/07 04:22:20;;;;;;;0.40;0.30;;;;;;;9.55;90.30;100661.44;5032948;28;20451;-72
2021/11/07 04:24:47;;;;;;;0.40;0.30;;;;;;;9.57;90.30;100658.47;5032986;28;20506;-71
2021/11/07 04:27:13;;;;;;;0.40;0.30;;;;;;;9.60;90.42;100657.88;5032773;28;20960;-72
2021/11/07 04:29:40;;;;;;;0.40;0.30;;;;;;;9.60;90.72;100661.38;5032586;28;20850;-72
2021/11/07 04:32:07;;;;;;;0.40;0.20;;;;;;;9.58;91.21;100662.78;5032935;28;20447;-72
2021/11/07 04:34:33;;;;;;;0.40;0.30;;;;;;;9.58;91.38;100654.66;5032940;28;20450;-71
2021/11/07 04:37:03;;;;;;;0.40;0.30;;;;;;;9.53;92.51;100643.91;5032458;28;20502;-72
2021/11/07 04:39:30;;;;;;;0.40;0.30;;;;;;;9.48;93.44;100646.69;5032559;28;20799;-72
2021/11/07 04:41:56;;;;;;;0.40;0.30;;;;;;;9.43;94.14;100646.75;5032880;28;20869;-72
2021/11/07 04:44:23;;;;;;;0.40;0.30;;;;;;;9.43;93.26;100635.94;5032757;28;20447;-71
2021/11/07 04:46:51;;;;;;;0.40;0.30;;;;;;;9.44;92.72;100634.88;5035531;28;20455;-71
2021/11/07 04:49:18;;;;;;;0.40;0.30;;;;;;;9.49;92.55;100627.47;5036631;28;20493;-72
2021/11/07 04:51:45;;;;;;;0.40;0.30;;;;;;;9.54;92.29;100629.31;5036521;28;20530;-72
2021/11/07 04:54:13;;;;;;;0.40;0.30;;;;;;;9.61;91.84;100621.63;5036228;28;20793;-72
2021/11/07 04:56:39;;;;;;;0.40;0.30;;;;;;;9.65;90.82;100617.25;5036094;28;20482;-72
2021/11/07 04:59:07;;;;;;;0.40;0.30;;;;;;;9.68;90.53;100607.72;5036414;28;20439;-72
2021/11/07 05:01:33;;;;;;;0.40;0.30;;;;;;;9.74;89.67;100612.78;5036279;28;20454;-72
2021/11/07 05:04:00;;;;;;;0.40;0.30;;;;;;;9.79;89.31;100599.16;5036316;28;20447;-72
2021/11/07 05:06:26;;;;;;;0.40;0.30;;;;;;;9.82;89.35;100595.84;5036303;28;20475;-72
2021/11/07 05:08:53;;;;;;;0.40;0.30;;;;;;;9.84;89.26;100601.78;5036180;28;20482;-72
2021/11/07 05:11:21;;;;;;;0.40;0.30;;;;;;;9.84;88.14;100604.50;5035857;28;20857;-73
2021/11/07 05:13:47;;;;;;;1.07;1.07;;;;;;;9.83;87.91;100600.19;5036159;28;20485;-73
2021/11/07 05:16:15;;;;;;;0.40;0.30;;;;;;;9.89;88.27;100602.81;5036351;28;20458;-73
2021/11/07 05:18:41;;;;;;;0.40;0.30;;;;;;;9.92;87.65;100592.19;5037483;28;20472;-72
2021/11/07 05:21:08;;;;;;;0.40;0.30;;;;;;;9.97;87.35;100602.13;5036085;28;20439;-72
2021/11/07 05:23:34;;;;;;;0.40;0.30;;;;;;;9.99;87.91;100608.84;5035972;28;20470;-72
2021/11/07 05:26:01;;;;;;;0.40;0.30;;;;;;;9.98;86.41;100601.03;5035910;28;20459;-72
2021/11/07 05:28:29;;;;;;;0.40;0.30;;;;;;;9.99;86.13;100592.59;5035774;28;20487;-72
2021/11/07 05:30:56;;;;;;;0.40;0.30;;;;;;;10.05;86.68;100593.34;5035825;28;20453;-72
2021/11/07 05:33:22;;;;;;;0.40;0.20;;;;;;;10.06;85.77;100587.63;5035503;28;20964;-72
2021/11/07 05:35:49;;;;;;;0.40;0.30;;;;;;;10.06;85.41;100597.66;5035704;28;20463;-72
2021/11/07 05:38:16;;;;;;;0.40;0.30;;;;;;;10.07;85.81;100577.59;5035663;28;20439;-72
2021/11/07 05:40:43;;;;;;;0.40;0.30;;;;;;;10.09;86.44;100594.31;5035659;28;20450;-72
2021/11/07 05:43:09;;;;;;;0.40;0.30;;;;;;;10.08;85.86;100576.47;5035603;28;20501;-71
2021/11/07 05:45:37;;;;;;;0.40;0.30;;;;;;;10.04;87.47;100589.81;5035449;28;20521;-71
2021/11/07 05:48:06;;;;;;;0.40;0.30;;;;;;;9.99;87.06;100570.94;5035437;28;20498;-71
2021/11/07 05:50:33;;;;;;;0.40;0.30;;;;;;;10.01;87.32;100563.34;5035484;28;20497;-72
2021/11/07 05:53:01;;;;;;;0.40;0.30;;;;;;;10.05;86.83;100568.97;5035436;28;20447;-71
2021/11/07 05:55:27;;;;;;;0.40;0.30;;;;;;;10.04;86.62;100567.34;5035043;28;20518;-72
2021/11/07 05:57:54;;;;;;;0.40;0.27;;;;;;;10.04;86.80;100560.03;5035146;28;20493;-71
2021/11/07 06:00:21;;;;;;;0.40;0.30;;;;;;;10.04;87.27;100554.63;5035320;28;20504;-72
2021/11/07 06:02:49;;;;;;;0.40;0.30;;;;;;;10.07;86.87;100559.44;5034910;28;20435;-70
2021/11/07 06:05:16;;;;;;;0.40;0.40;;;;;;;10.05;87.34;100558.16;5035118;28;20467;-71
2021/11/07 06:07:43;;;;;;;0.40;0.30;;;;;;;10.07;87.68;100567.56;5034756;28;20446;-71
2021/11/07 06:10:10;;;;;;;0.40;0.30;;;;;;;10.10;87.01;100566.97;5035005;28;20945;-72
2021/11/07 06:12:37;;;;;;;0.53;0.50;;;;;;;10.13;87.23;100562.84;5035078;28;20466;-71
2021/11/07 06:15:04;;;;;;;0.40;0.30;;;;;;;10.14;87.11;100561.78;5034621;28;20976;-71
2021/11/07 06:17:30;;;;;;;0.40;0.30;;;;;;;10.17;86.69;100560.38;5034934;28;20439;-71
2021/11/07 06:19:58;;;;;;;0.40;0.30;;;;;;;10.16;87.36;100561.47;5034899;28;20448;-72
2021/11/07 06:22:24;;;;;;;0.40;0.20;;;;;;;10.19;86.76;100558.97;5034841;28;20450;-73
2021/11/07 06:24:51;;;;;;;0.40;0.30;;;;;;;10.22;87.26;100552.16;5034767;28;20462;-70
2021/11/07 06:27:18;;;;;;;0.40;0.20;;;;;;;10.20;88.26;100554.34;5034776;28;20443;-69
2021/11/07 06:29:45;;;;;;;0.40;0.30;;;;;;;10.19;88.07;100558.19;5034658;28;20483;-70
2021/11/07 06:32:12;;;;;;;0.40;0.20;;;;;;;10.20;88.21;100555.16;5034902;28;20461;-70
2021/11/07 06:34:40;;;;;;;0.40;0.30;;;;;;;10.17;88.33;100560.38;5034549;28;20435;-68
2021/11/07 06:37:10;;;;;;;0.40;0.20;;;;;;;10.03;90.30;100557.63;5034602;28;20452;-68
2021/11/07 06:39:37;;;;;;;0.40;0.30;;;;;;;9.95;91.45;100547.50;5034533;28;20521;-68
2021/11/07 06:42:05;;;;;;;0.40;0.30;;;;;;;9.95;91.24;100547.50;5034520;28;20447;-68
2021/11/07 06:44:34;;;;;;;0.40;0.30;;;;;;;9.93;91.40;100547.00;5033955;28;20529;-68
2021/11/07 06:47:01;;;;;;;8.90;3.07;;;;;;;9.91;92.06;100546.47;5034401;28;20501;-68
2021/11/07 06:49:27;;;;;;;0.40;0.30;;;;;;;9.90;91.93;100545.69;5034531;28;20483;-68
2021/11/07 06:51:54;;;;;;;0.40;0.30;;;;;;;9.89;92.21;100548.69;5034016;28;20888;-68
2021/11/07 06:54:24;;;;;;;0.40;0.30;;;;;;;9.93;91.69;100539.69;5033972;28;20947;-68
2021/11/07 06:56:51;;;;;;;0.40;0.30;;;;;;;9.94;92.19;100543.19;5034083;28;20521;-68
2021/11/07 06:59:17;;;;;;;0.50;0.30;;;;;;;9.95;91.98;100540.19;5034169;28;20848;-68
2021/11/07 07:01:44;;;;;;;0.40;0.20;;;;;;;9.99;91.32;100540.38;5034088;28;20443;-68
2021/11/07 07:04:10;;;;;;;0.40;0.30;;;;;;;10.01;90.53;100540.91;5034117;28;20451;-68
2021/11/07 07:06:37;;;;;;;0.40;0.30;;;;;;;10.06;90.70;100528.09;5033949;28;20466;-68
2021/11/07 07:09:06;;;;;;;0.40;0.30;;;;;;;10.05;90.63;100540.00;5033371;28;20897;-68
2021/11/07 07:11:37;;;;;;;0.40;0.30;;;;;;;10.11;90.32;100535.31;5033675;28;20444;-68
2021/11/07 07:14:09;;;;;;;0.40;0.30;;;;;;;10.13;91.01;100527.66;5033909;28;20427;-68
2021/11/07 07:16:44;;;;;;;0.40;0.30;;;;;;;10.14;90.58;100533.88;5033830;28;20506;-68
2021/11/07 07:19:24;;;;;;;0.40;0.20;;;;;;;10.14;90.78;100542.84;5033918;28;20427;-68
2021/11/07 07:22:02;;;;;;;0.40;0.20;;;;;;;10.13;91.83;100546.63;5033954;28;20947;-68
2021/11/07 07:27:32;;;;;;;0.40;0.30;;;;;;;10.23;91.91;100542.94;5033534;28;21031;-68
2021/11/07 07:30:06;;;;;;;0.40;0.30;;;;;;;10.22;91.54;100535.91;5033652;28;20470;-68
2021/11/07 07:32:48;;;;;;;0.40;0.30;;;;;;;10.25;91.81;100529.94;5033620;28;20427;-68
2021/11/07 07:35:15;;;;;;;0.40;0.30;;;;;;;10.19;93.02;100548.16;5033579;28;20506;-68
2021/11/07 07:37:41;;;;;;;0.40;0.30;;;;;;;10.14;94.11;100539.31;5033540;28;20495;-68
2021/11/07 07:40:10;;;;;;;0.40;0.30;;;;;;;10.03;95.83;100536.00;5033497;28;20439;-68
2021/11/07 07:42:38;;;;;;;0.40;0.30;;;;;;;9.96;96.20;100535.56;5033467;28;20494;-68
2021/11/07 07:45:07;;;;;;;0.40;0.30;;;;;;;9.91;96.75;100536.47;5033344;28;20467;-68
2021/11/07 07:47:33;;;;;;;0.40;0.30;;;;;;;9.89;96.86;100527.06;5033435;28;20447;-68
2021/11/07 07:50:00;;;;;;;0.40;0.30;;;;;;;9.88;96.91;100531.66;5033542;28;20487;-68
2021/11/07 07:52:27;;;;;;;0.40;0.30;;;;;;;9.88;96.46;100525.44;5032897;28;20890;-68
2021/11/07 07:54:56;;;;;;;0.40;0.30;;;;;;;9.88;97.25;100522.75;5033069;28;20455;-68
2021/11/07 07:57:23;;;;;;;0.40;0.30;;;;;;;9.95;96.54;100529.34;5033338;28;20798;-68
2021/11/07 07:59:51;;;;;;;0.40;0.30;;;;;;;9.96;96.22;100517.44;5033123;28;20865;-67
2021/11/07 08:02:18;;;;;;;0.40;0.30;;;;;;;9.99;95.29;100518.75;5033194;28;20443;-68
2021/11/07 08:04:44;;;;;;;0.40;0.30;;;;;;;10.01;95.98;100521.97;5033189;28;20475;-68
2021/11/07 08:07:11;;;;;;;0.40;0.30;;;;;;;10.04;96.56;100516.75;5033116;28;20439;-68
2021/11/07 08:09:37;;;;;;;0.40;0.30;;;;;;;10.09;95.46;100521.25;5032792;28;21055;-69
2021/11/07 08:12:04;;;;;;;0.40;0.30;;;;;;;10.13;95.32;100516.84;5033194;28;20439;-69
2021/11/07 08:14:30;;;;;;;0.40;0.30;;;;;;;10.17;95.26;100523.28;5033120;28;20451;-69
2021/11/07 08:16:59;;;;;;;0.40;0.23;;;;;;;10.21;94.34;100510.75;5033074;28;20827;-69
2021/11/07 08:19:25;;;;;;;0.40;0.30;;;;;;;10.22;94.17;100508.84;5033060;28;20533;-68
2021/11/07 08:21:53;;;;;;;0.40;0.30;;;;;;;10.28;93.87;100508.47;5035739;28;20929;-68
2021/11/07 08:24:19;;;;;;;0.40;0.30;;;;;;;10.37;93.85;100505.88;5037205;28;20442;-68
2021/11/07 08:26:47;;;;;;;0.40;0.30;;;;;;;10.37;93.25;100505.06;5037203;28;20466;-68
2021/11/07 08:29:15;;;;;;;0.40;0.30;;;;;;;10.37;93.25;100511.28;5036943;28;20486;-68
2021/11/07 08:31:43;;;;;;;0.40;0.30;;;;;;;10.38;92.84;100503.97;5036957;28;20477;-68
2021/11/07 08:34:11;;;;;;;0.40;0.30;;;;;;;10.43;92.18;100495.72;5036908;28;20537;-68
2021/11/07 08:36:42;;;;;;;0.40;0.20;;;;;;;10.49;92.38;100492.63;5036508;28;20982;-68
2021/11/07 08:39:15;;;;;;;0.40;0.30;;;;;;;10.53;91.88;100490.09;5036870;28;20449;-68
2021/11/07 08:41:47;;;;;;;0.40;0.30;;;;;;;10.58;90.91;100493.53;5036552;28;20431;-68
2021/11/07 09:00:43;;;;;;;0.40;0.20;;;;;;;10.99;88.67;100478.28;5036332;28;20971;-68
2021/11/07 09:03:19;;;;;;;0.40;0.30;;;;;;;11.03;88.74;100477.34;5036147;28;21179;-69
2021/11/07 09:05:56;;;;;;;0.40;0.40;;;;;;;11.11;88.57;100483.94;5036362;28;20498;-69
2021/11/07 09:08:24;;;;;;;0.40;0.30;;;;;;;11.07;88.25;100477.56;5036067;28;20970;-69
2021/11/07 09:10:51;;;;;;;0.40;0.20;;;;;;;11.09;88.43;100472.63;5036156;28;20486;-70
2021/11/07 09:13:18;;;;;;;0.40;0.30;;;;;;;11.11;88.50;100467.66;5036510;28;20439;-70
2021/11/07 09:15:49;;;;;;;0.40;0.30;;;;;;;11.16;88.34;100459.44;5036064;28;20466;-69
2021/11/07 09:18:16;;;;;;;0.40;0.20;;;;;;;11.19;88.83;100464.22;5036131;28;20431;-70
2021/11/07 09:20:49;;;;;;;0.40;0.30;;;;;;;11.29;88.43;100449.66;5036027;28;20449;-70
2021/11/07 09:23:21;;;;;;;0.40;0.30;;;;;;;11.42;88.51;100447.94;5035799;28;20963;-70
2021/11/07 09:25:50;;;;;;;0.40;0.30;;;;;;;11.51;88.23;100454.22;5035946;28;20481;-70
2021/11/07 09:28:21;;;;;;;0.40;0.30;;;;;;;11.55;87.91;100452.50;5035902;28;20439;-68
2021/11/07 09:30:56;;;;;;;0.40;0.30;;;;;;;11.54;87.27;100453.63;5035694;28;20486;-69
2021/11/07 09:33:28;;;;;;;0.40;0.30;;;;;;;11.55;87.51;100447.06;5035768;28;20431;-69
2021/11/07 09:36:10;;;;;;;0.40;0.30;;;;;;;11.55;88.07;100452.50;5035781;28;20517;-69
2021/11/07 09:38:46;;;;;;;0.40;0.20;;;;;;;11.49;88.08;100454.53;5035788;28;20556;-69
2021/11/07 09:41:18;;;;;;;0.47;0.40;;;;;;;11.51;87.65;100446.09;5035395;28;20466;-69
2021/11/07 09:43:48;;;;;;;0.40;0.30;;;;;;;11.52;87.69;100447.72;5035622;28;20906;-69
2021/11/07 09:46:26;;;;;;;0.93;0.90;;;;;;;11.61;87.86;100448.56;5035197;28;20467;-69
2021/11/07 09:48:55;;;;;;;0.40;0.30;;;;;;;11.67;86.99;100449.22;5035431;28;20432;-68
2021/11/07 09:51:27;;;;;;;0.40;0.30;;;;;;;11.83;86.45;100453.16;5035533;28;20867;-69
2021/11/07 09:53:56;;;;;;;0.40;0.30;;;;;;;11.88;85.93;100463.09;5035111;28;20789;-69
2021/11/07 09:56:23;;;;;;;0.40;0.30;;;;;;;11.78;86.12;100447.84;5035056;28;20507;-69
2021/11/07 09:58:52;;;;;;;0.40;0.30;;;;;;;11.69;86.05;100436.94;5035336;28;20451;-69
2021/11/07 10:01:20;;;;;;;0.40;0.30;;;;;;;11.76;85.70;100442.72;5035369;28;20443;-69
2021/11/07 10:03:47;;;;;;;0.40;0.20;;;;;;;11.87;85.12;100432.44;5035308;28;20816;-69
2021/11/07 10:06:30;;;;;;;0.40;0.30;;;;;;;11.95;84.91;100439.00;5035138;28;20513;-69
2021/11/07 10:09:00;;;;;;;0.40;0.30;;;;;;;11.97;85.09;100434.84;5034866;28;20790;-69
2021/11/07 10:11:31;;;;;;;0.40;0.27;;;;;;;11.91;85.39;100438.00;5035206;28;20501;-69
2021/11/07 10:14:06;;;;;;;0.40;0.27;;;;;;;11.90;85.11;100437.22;5035089;28;20439;-69
2021/11/07 10:16:41;;;;;;;0.40;0.30;;;;;;;11.95;85.14;100455.28;5035044;28;20473;-69
2021/11/07 10:19:22;;;;;;;0.40;0.30;;;;;;;11.99;85.46;100445.41;5034995;28;20431;-69
2021/11/07 10:21:50;;;;;;;0.40;0.30;;;;;;;11.99;84.32;100445.41;5035106;28;20427;-70
2021/11/07 10:24:23;;;;;;;0.40;0.30;;;;;;;12.02;84.70;100456.44;5034948;28;20855;-69
2021/11/07 10:26:55;;;;;;;0.40;0.30;;;;;;;11.98;84.81;100451.94;5034856;28;20813;-71
2021/11/07 10:29:28;;;;;;;0.40;0.30;;;;;;;11.81;85.04;100445.28;5034547;28;20475;-74
2021/11/07 10:32:06;;;;;;;0.40;0.30;;;;;;;11.77;84.84;100441.59;5034611;28;20974;-70
2021/11/07 10:35:10;;;;;;;0.40;0.30;;;;;;;11.68;85.97;100445.38;5034816;28;20435;-70
2021/11/07 10:40:58;;;;;;;0.40;0.30;;;;;;;11.64;85.61;100442.50;4973597;28;20923;-70
2021/11/07 10:46:31;;;;;;;0.40;0.30;;;;;;;11.60;84.75;100426.06;5034541;28;20458;-70
2021/11/07 10:54:29;;;;;;;0.40;0.20;;;;;;;11.09;92.63;100456.34;5034477;28;20418;-70
2021/11/07 10:57:17;;;;;;;0.40;0.20;;;;;;;10.83;96.29;100470.47;5034281;28;20466;-71
2021/11/07 11:00:05;;;;;;;0.40;0.30;;;;;;;10.47;100.00;100492.13;5034578;28;20435;-71
2021/11/07 11:02:37;;;;;;;0.40;0.30;;;;;;;10.26;100.00;100489.00;5034217;28;20491;-71
2021/11/07 11:05:08;;;;;;;0.40;0.30;;;;;;;10.05;100.00;100461.53;5034021;28;20556;-71
2021/11/07 11:07:49;;;;;;;0.40;0.30;;;;;;;9.88;100.00;100457.81;5034132;28;20443;-71
2021/11/07 11:10:19;;;;;;;0.40;0.30;;;;;;;9.77;100.00;100439.06;5034041;28;20562;-71
2021/11/07 11:13:15;;;;;;;0.40;0.30;;;;;;;9.61;100.00;100437.75;5034064;28;20497;-71
2021/11/07 11:15:53;;;;;;;0.40;0.30;;;;;;;9.48;100.00;100439.31;5033905;28;20513;-70
2021/11/07 11:18:33;;;;;;;0.40;0.30;;;;;;;9.38;100.00;100435.97;5034140;28;20427;-71
2021/11/07 11:21:25;;;;;;;0.40;0.30;;;;;;;9.28;100.00;100429.66;5034797;28;20505;-70
2021/11/07 11:24:07;;;;;;;0.40;0.30;;;;;;;9.18;100.00;100424.41;5033820;28;20497;-71
2021/11/07 11:29:44;;;;;;;0.40;0.30;;;;;;;9.04;100.00;100413.56;5023236;28;20477;-70
2021/11/07 11:32:18;;;;;;;0.40;0.30;;;;;;;9.08;100.00;100417.28;5033914;28;20432;-71
2021/11/07 11:34:49;;;;;;;0.40;0.30;;;;;;;9.13;100.00;100424.50;5033229;28;20912;-71
2021/11/07 11:37:19;;;;;;;0.40;0.30;;;;;;;9.23;100.00;100413.53;5033606;28;20427;-71
2021/11/07 11:39:52;;;;;;;0.40;0.30;;;;;;;9.78;100.00;100412.81;5033883;28;20534;-71
2021/11/07 11:42:23;;;;;;;0.40;0.30;;;;;;;10.41;100.00;100416.72;5033563;28;20442;-71
2021/11/07 11:44:54;;;;;;;0.40;0.27;;;;;;;10.65;100.00;100414.53;5033451;28;20453;-71
2021/11/07 11:47:40;;;;;;;0.40;0.30;;;;;;;11.02;100.00;100416.13;5033481;28;20431;-72
2021/11/07 11:53:00;;;;;;;0.40;0.30;;;;;;;10.84;99.66;100428.72;5032874;28;20445;-71
2021/11/07 11:55:39;;;;;;;0.40;0.23;;;;;;;10.94;97.92;100426.91;5032993;28;20494;-71
2021/11/07 11:58:29;;;;;;;0.40;0.30;;;;;;;10.86;97.59;100426.53;5033322;28;20962;-71
2021/11/07 12:01:04;;;;;;;0.40;0.30;;;;;;;10.66;98.56;100426.97;5033303;28;20462;-71
2021/11/07 12:03:41;;;;;;;0.40;0.20;;;;;;;10.55;100.00;100415.59;5033627;28;20431;-71
2021/11/07 12:06:30;;;;;;;0.40;0.30;;;;;;;10.68;100.00;100422.06;5033224;28;20483;-71
2021/11/07 12:09:21;;;;;;;0.40;0.30;;;;;;;11.16;100.00;100418.78;5033199;28;20430;-70
2021/11/07 12:11:53;;;;;;;0.40;0.30;;;;;;;11.32;98.59;100411.03;5033370;28;20510;-71
2021/11/07 12:14:26;;;;;;;0.40;0.30;;;;;;;11.38;98.02;100407.13;5033140;28;20431;-71
2021/11/07 12:16:58;;;;;;;0.40;0.30;;;;;;;11.62;98.14;100410.25;5032720;28;21063;-71
2021/11/07 12:19:33;;;;;;;0.40;0.30;;;;;;;11.51;96.81;100408.13;5033425;28;20460;-72
2021/11/07 12:22:03;;;;;;;0.40;0.30;;;;;;;11.27;96.62;100406.56;5032838;28;20935;-70